sensor_id;sensor_type;location;lat;lon;timestamp;temperature;humidity
46309;DHT22;32037;50.820;6.494;2023-06-10T00:00:34;26.70;51.50
46309;DHT22;32037;50.820;6.494;2023-06-10T00:03:03;26.80;51.60
46309;DHT22;32037;50.820;6.494;2023-06-10T00:05:32;26.80;51.50
46309;DHT22;32037;50.820;6.494;2023-06-10T00:08:02;26.80;51.50
46309;DHT22;32037;50.820;6.494;2023-06-10T00:10:34;26.70;51.50
46309;DHT22;32037;50.820;6.494;2023-06-10T00:13:05;26.70;51.40
46309;DHT22;32037;50.820;6.494;2023-06-10T00:15:35;26.80;51.50
46309;DHT22;32037;50.820;6.494;2023-06-10T00:18:04;26.80;51.60
46309;DHT22;32037;50.820;6.494;2023-06-10T00:20:33;26.70;51.40
46309;DHT22;32037;50.820;6.494;2023-06-10T00:23:05;26.70;51.40
46309;DHT22;32037;50.820;6.494;2023-06-10T00:25:35;26.70;51.50
46309;DHT22;32037;50.820;6.494;2023-06-10T00:28:05;26.70;51.50
46309;DHT22;32037;50.820;6.494;2023-06-10T00:30:33;26.70;51.40
46309;DHT22;32037;50.820;6.494;2023-06-10T00:33:02;26.70;51.40
46309;DHT22;32037;50.820;6.494;2023-06-10T00:35:30;26.70;52.70
46309;DHT22;32037;50.820;6.494;2023-06-10T00:37:59;26.70;51.40
46309;DHT22;32037;50.820;6.494;2023-06-10T00:40:28;26.70;51.50
46309;DHT22;32037;50.820;6.494;2023-06-10T00:42:58;26.70;51.40
46309;DHT22;32037;50.820;6.494;2023-06-10T00:45:28;26.70;51.50
46309;DHT22;32037;50.820;6.494;2023-06-10T00:47:58;26.70;51.40
46309;DHT22;32037;50.820;6.494;2023-06-10T00:50:26;26.70;51.40
46309;DHT22;32037;50.820;6.494;2023-06-10T00:52:55;26.70;51.50
46309;DHT22;32037;50.820;6.494;2023-06-10T00:55:24;26.70;51.50
46309;DHT22;32037;50.820;6.494;2023-06-10T00:57:54;26.70;51.40
46309;DHT22;32037;50.820;6.494;2023-06-10T01:00:22;26.70;51.50
46309;DHT22;32037;50.820;6.494;2023-06-10T01:02:52;26.70;51.50
46309;DHT22;32037;50.820;6.494;2023-06-10T01:05:21;26.70;51.40
46309;DHT22;32037;50.820;6.494;2023-06-10T01:07:56;26.70;51.50
46309;DHT22;32037;50.820;6.494;2023-06-10T01:10:33;26.70;51.60
46309;DHT22;32037;50.820;6.494;2023-06-10T01:13:06;26.70;51.60
46309;DHT22;32037;50.820;6.494;2023-06-10T01:15:35;26.60;51.40
46309;DHT22;32037;50.820;6.494;2023-06-10T01:18:06;26.70;51.50
46309;DHT22;32037;50.820;6.494;2023-06-10T01:20:37;26.70;51.60
46309;DHT22;32037;50.820;6.494;2023-06-10T01:23:09;26.60;51.50
46309;DHT22;32037;50.820;6.494;2023-06-10T01:25:39;26.60;51.50
46309;DHT22;32037;50.820;6.494;2023-06-10T01:28:14;26.60;51.30
46309;DHT22;32037;50.820;6.494;2023-06-10T01:30:48;26.60;51.50
46309;DHT22;32037;50.820;6.494;2023-06-10T01:33:25;26.60;51.50
46309;DHT22;32037;50.820;6.494;2023-06-10T01:35:56;26.60;51.50
46309;DHT22;32037;50.820;6.494;2023-06-10T01:38:27;26.60;51.50
46309;DHT22;32037;50.820;6.494;2023-06-10T01:40:59;26.60;51.50
46309;DHT22;32037;50.820;6.494;2023-06-10T01:43:28;26.60;51.50
46309;DHT22;32037;50.820;6.494;2023-06-10T01:45:56;26.60;51.60
46309;DHT22;32037;50.820;6.494;2023-06-10T01:48:24;26.60;51.50
46309;DHT22;32037;50.820;6.494;2023-06-10T01:50:53;26.60;51.60
46309;DHT22;32037;50.820;6.494;2023-06-10T01:53:23;26.60;51.60
46309;DHT22;32037;50.820;6.494;2023-06-10T01:55:54;26.60;51.60
46309;DHT22;32037;50.820;6.494;2023-06-10T01:58:23;26.60;51.60
46309;DHT22;32037;50.820;6.494;2023-06-10T02:00:51;26.60;51.60
46309;DHT22;32037;50.820;6.494;2023-06-10T02:03:20;26.60;51.60
46309;DHT22;32037;50.820;6.494;2023-06-10T02:05:49;26.50;51.60
46309;DHT22;32037;50.820;6.494;2023-06-10T02:08:17;26.50;51.60
46309;DHT22;32037;50.820;6.494;2023-06-10T02:10:46;26.50;51.70
46309;DHT22;32037;50.820;6.494;2023-06-10T02:13:16;26.50;51.60
46309;DHT22;32037;50.820;6.494;2023-06-10T02:15:45;26.50;51.70
46309;DHT22;32037;50.820;6.494;2023-06-10T02:18:14;26.50;51.70
46309;DHT22;32037;50.820;6.494;2023-06-10T02:20:42;26.50;51.60
46309;DHT22;32037;50.820;6.494;2023-06-10T02:23:11;26.50;51.70
46309;DHT22;32037;50.820;6.494;2023-06-10T02:25:39;26.50;51.70
46309;DHT22;32037;50.820;6.494;2023-06-10T02:28:08;26.50;51.60
46309;DHT22;32037;50.820;6.494;2023-06-10T02:30:40;26.50;51.70
46309;DHT22;32037;50.820;6.494;2023-06-10T02:33:09;26.50;51.70
46309;DHT22;32037;50.820;6.494;2023-06-10T02:35:38;26.50;51.70
46309;DHT22;32037;50.820;6.494;2023-06-10T02:38:07;26.50;51.70
46309;DHT22;32037;50.820;6.494;2023-06-10T02:40:36;26.50;51.70
46309;DHT22;32037;50.820;6.494;2023-06-10T02:43:04;26.50;51.60
46309;DHT22;32037;50.820;6.494;2023-06-10T02:45:32;26.50;51.60
46309;DHT22;32037;50.820;6.494;2023-06-10T02:48:04;26.50;51.70
46309;DHT22;32037;50.820;6.494;2023-06-10T02:50:33;26.50;51.80
46309;DHT22;32037;50.820;6.494;2023-06-10T02:53:23;26.40;51.60
46309;DHT22;32037;50.820;6.494;2023-06-10T02:55:58;26.40;51.70
46309;DHT22;32037;50.820;6.494;2023-06-10T02:58:27;26.40;51.60
46309;DHT22;32037;50.820;6.494;2023-06-10T03:00:55;26.40;51.60
46309;DHT22;32037;50.820;6.494;2023-06-10T03:03:29;26.40;51.60
46309;DHT22;32037;50.820;6.494;2023-06-10T03:06:04;26.40;51.70
46309;DHT22;32037;50.820;6.494;2023-06-10T03:08:34;26.40;51.80
46309;DHT22;32037;50.820;6.494;2023-06-10T03:11:06;26.40;51.80
46309;DHT22;32037;50.820;6.494;2023-06-10T03:13:38;26.40;51.70
46309;DHT22;32037;50.820;6.494;2023-06-10T03:16:09;26.40;51.80
46309;DHT22;32037;50.820;6.494;2023-06-10T03:18:41;26.40;51.80
46309;DHT22;32037;50.820;6.494;2023-06-10T03:21:10;26.40;51.80
46309;DHT22;32037;50.820;6.494;2023-06-10T03:23:39;26.40;51.80
46309;DHT22;32037;50.820;6.494;2023-06-10T03:26:07;26.40;51.80
46309;DHT22;32037;50.820;6.494;2023-06-10T03:28:39;26.40;51.80
46309;DHT22;32037;50.820;6.494;2023-06-10T03:31:08;26.40;51.90
46309;DHT22;32037;50.820;6.494;2023-06-10T03:33:37;26.40;51.90
46309;DHT22;32037;50.820;6.494;2023-06-10T03:36:07;26.30;51.80
46309;DHT22;32037;50.820;6.494;2023-06-10T03:38:37;26.30;51.80
46309;DHT22;32037;50.820;6.494;2023-06-10T03:41:07;26.30;51.80
46309;DHT22;32037;50.820;6.494;2023-06-10T03:43:38;26.30;51.80
46309;DHT22;32037;50.820;6.494;2023-06-10T03:46:07;26.30;51.80
46309;DHT22;32037;50.820;6.494;2023-06-10T03:48:37;26.30;51.80
46309;DHT22;32037;50.820;6.494;2023-06-10T03:51:08;26.30;52.00
46309;DHT22;32037;50.820;6.494;2023-06-10T03:53:36;26.30;51.90
46309;DHT22;32037;50.820;6.494;2023-06-10T03:56:05;26.30;52.00
46309;DHT22;32037;50.820;6.494;2023-06-10T03:58:34;26.30;52.00
46309;DHT22;32037;50.820;6.494;2023-06-10T04:01:05;26.30;52.00
46309;DHT22;32037;50.820;6.494;2023-06-10T04:03:35;26.30;52.00
46309;DHT22;32037;50.820;6.494;2023-06-10T04:06:03;26.30;52.10
46309;DHT22;32037;50.820;6.494;2023-06-10T04:08:34;26.30;52.10
46309;DHT22;32037;50.820;6.494;2023-06-10T04:11:03;26.20;52.00
46309;DHT22;32037;50.820;6.494;2023-06-10T04:13:31;26.20;52.00
46309;DHT22;32037;50.820;6.494;2023-06-10T04:15:59;26.20;52.00
46309;DHT22;32037;50.820;6.494;2023-06-10T04:18:29;26.20;52.10
46309;DHT22;32037;50.820;6.494;2023-06-10T04:21:02;26.20;52.00
46309;DHT22;32037;50.820;6.494;2023-06-10T04:23:34;26.20;52.00
46309;DHT22;32037;50.820;6.494;2023-06-10T04:26:04;26.20;52.00
46309;DHT22;32037;50.820;6.494;2023-06-10T04:28:32;26.20;52.30
46309;DHT22;32037;50.820;6.494;2023-06-10T04:31:01;26.20;52.10
46309;DHT22;32037;50.820;6.494;2023-06-10T04:33:31;26.20;52.20
46309;DHT22;32037;50.820;6.494;2023-06-10T04:36:02;26.20;52.10
46309;DHT22;32037;50.820;6.494;2023-06-10T04:38:31;26.20;52.20
46309;DHT22;32037;50.820;6.494;2023-06-10T04:41:01;26.20;52.30
46309;DHT22;32037;50.820;6.494;2023-06-10T04:43:34;26.20;52.40
46309;DHT22;32037;50.820;6.494;2023-06-10T04:46:03;26.20;52.30
46309;DHT22;32037;50.820;6.494;2023-06-10T04:48:36;26.10;52.30
46309;DHT22;32037;50.820;6.494;2023-06-10T04:51:04;26.10;52.20
46309;DHT22;32037;50.820;6.494;2023-06-10T04:53:33;26.10;52.30
46309;DHT22;32037;50.820;6.494;2023-06-10T04:56:03;26.10;52.40
46309;DHT22;32037;50.820;6.494;2023-06-10T04:58:32;26.10;52.50
46309;DHT22;32037;50.820;6.494;2023-06-10T05:01:00;26.10;53.60
46309;DHT22;32037;50.820;6.494;2023-06-10T05:03:29;26.10;52.60
46309;DHT22;32037;50.820;6.494;2023-06-10T05:05:57;26.10;52.50
46309;DHT22;32037;50.820;6.494;2023-06-10T05:08:26;26.10;52.70
46309;DHT22;32037;50.820;6.494;2023-06-10T05:10:54;26.10;52.60
46309;DHT22;32037;50.820;6.494;2023-06-10T05:13:24;26.10;52.70
46309;DHT22;32037;50.820;6.494;2023-06-10T05:15:52;26.10;52.50
46309;DHT22;32037;50.820;6.494;2023-06-10T05:18:21;26.10;52.50
46309;DHT22;32037;50.820;6.494;2023-06-10T05:20:49;26.10;52.40
46309;DHT22;32037;50.820;6.494;2023-06-10T05:23:18;26.10;52.40
46309;DHT22;32037;50.820;6.494;2023-06-10T05:25:46;26.10;52.40
46309;DHT22;32037;50.820;6.494;2023-06-10T05:28:15;26.10;52.30
46309;DHT22;32037;50.820;6.494;2023-06-10T05:30:45;26.10;52.30
46309;DHT22;32037;50.820;6.494;2023-06-10T05:33:13;26.10;52.40
46309;DHT22;32037;50.820;6.494;2023-06-10T05:35:42;26.10;52.30
46309;DHT22;32037;50.820;6.494;2023-06-10T05:38:10;26.10;52.20
46309;DHT22;32037;50.820;6.494;2023-06-10T05:40:38;26.10;52.10
46309;DHT22;32037;50.820;6.494;2023-06-10T05:43:07;26.10;52.30
46309;DHT22;32037;50.820;6.494;2023-06-10T05:45:37;26.10;52.20
46309;DHT22;32037;50.820;6.494;2023-06-10T05:48:09;26.10;52.40
46309;DHT22;32037;50.820;6.494;2023-06-10T05:50:37;26.10;52.40
46309;DHT22;32037;50.820;6.494;2023-06-10T05:53:07;26.10;52.40
46309;DHT22;32037;50.820;6.494;2023-06-10T05:55:42;26.10;52.30
46309;DHT22;32037;50.820;6.494;2023-06-10T05:58:11;26.10;52.40
46309;DHT22;32037;50.820;6.494;2023-06-10T06:00:40;26.10;52.40
46309;DHT22;32037;50.820;6.494;2023-06-10T06:03:10;26.10;52.40
46309;DHT22;32037;50.820;6.494;2023-06-10T06:05:39;26.10;52.40
46309;DHT22;32037;50.820;6.494;2023-06-10T06:08:08;26.10;53.70
46309;DHT22;32037;50.820;6.494;2023-06-10T06:10:36;26.10;52.60
46309;DHT22;32037;50.820;6.494;2023-06-10T06:13:04;26.10;52.60
46309;DHT22;32037;50.820;6.494;2023-06-10T06:15:33;26.10;52.70
46309;DHT22;32037;50.820;6.494;2023-06-10T06:18:01;26.10;52.30
46309;DHT22;32037;50.820;6.494;2023-06-10T06:20:31;26.10;52.60
46309;DHT22;32037;50.820;6.494;2023-06-10T06:22:59;26.10;52.40
46309;DHT22;32037;50.820;6.494;2023-06-10T06:25:27;26.00;49.90
46309;DHT22;32037;50.820;6.494;2023-06-10T06:27:56;25.90;48.30
46309;DHT22;32037;50.820;6.494;2023-06-10T06:30:24;25.80;46.10
46309;DHT22;32037;50.820;6.494;2023-06-10T06:32:53;25.60;48.30
46309;DHT22;32037;50.820;6.494;2023-06-10T06:35:22;25.50;49.50
46309;DHT22;32037;50.820;6.494;2023-06-10T06:37:52;25.60;49.90
46309;DHT22;32037;50.820;6.494;2023-06-10T06:40:25;25.60;50.20
46309;DHT22;32037;50.820;6.494;2023-06-10T06:42:54;25.70;50.30
46309;DHT22;32037;50.820;6.494;2023-06-10T06:45:40;25.70;50.30
46309;DHT22;32037;50.820;6.494;2023-06-10T06:48:09;25.80;50.20
46309;DHT22;32037;50.820;6.494;2023-06-10T06:50:37;25.80;50.20
46309;DHT22;32037;50.820;6.494;2023-06-10T06:53:07;25.80;50.20
46309;DHT22;32037;50.820;6.494;2023-06-10T06:55:36;25.90;50.20
46309;DHT22;32037;50.820;6.494;2023-06-10T06:58:04;25.80;50.10
46309;DHT22;32037;50.820;6.494;2023-06-10T07:00:32;25.90;50.30
46309;DHT22;32037;50.820;6.494;2023-06-10T07:03:01;25.90;50.50
46309;DHT22;32037;50.820;6.494;2023-06-10T07:05:30;25.90;50.00
46309;DHT22;32037;50.820;6.494;2023-06-10T07:07:58;25.90;50.20
46309;DHT22;32037;50.820;6.494;2023-06-10T07:12:57;26.10;47.70
46309;DHT22;32037;50.820;6.494;2023-06-10T07:15:26;26.10;49.20
46309;DHT22;32037;50.820;6.494;2023-06-10T07:17:55;26.10;49.40
46309;DHT22;32037;50.820;6.494;2023-06-10T07:20:23;26.00;49.40
46309;DHT22;32037;50.820;6.494;2023-06-10T07:22:52;26.00;49.60
46309;DHT22;32037;50.820;6.494;2023-06-10T07:25:21;26.00;50.00
46309;DHT22;32037;50.820;6.494;2023-06-10T07:27:50;26.00;50.00
46309;DHT22;32037;50.820;6.494;2023-06-10T07:30:19;26.00;50.20
46309;DHT22;32037;50.820;6.494;2023-06-10T07:32:47;26.00;50.20
46309;DHT22;32037;50.820;6.494;2023-06-10T07:35:16;26.00;50.40
46309;DHT22;32037;50.820;6.494;2023-06-10T07:37:44;26.00;50.50
46309;DHT22;32037;50.820;6.494;2023-06-10T07:40:13;26.00;50.70
46309;DHT22;32037;50.820;6.494;2023-06-10T07:42:42;25.90;50.80
46309;DHT22;32037;50.820;6.494;2023-06-10T07:45:12;26.00;50.80
46309;DHT22;32037;50.820;6.494;2023-06-10T07:47:42;26.00;50.90
46309;DHT22;32037;50.820;6.494;2023-06-10T07:50:11;25.90;50.80
46309;DHT22;32037;50.820;6.494;2023-06-10T07:52:39;26.00;50.90
46309;DHT22;32037;50.820;6.494;2023-06-10T07:55:08;26.00;51.10
46309;DHT22;32037;50.820;6.494;2023-06-10T07:57:37;26.00;52.20
46309;DHT22;32037;50.820;6.494;2023-06-10T08:00:06;26.00;51.10
46309;DHT22;32037;50.820;6.494;2023-06-10T08:02:40;26.00;51.20
46309;DHT22;32037;50.820;6.494;2023-06-10T08:05:08;26.00;51.30
46309;DHT22;32037;50.820;6.494;2023-06-10T08:07:37;26.00;51.30
46309;DHT22;32037;50.820;6.494;2023-06-10T08:10:06;26.00;51.40
46309;DHT22;32037;50.820;6.494;2023-06-10T08:12:36;26.00;51.60
46309;DHT22;32037;50.820;6.494;2023-06-10T08:15:05;26.00;51.50
46309;DHT22;32037;50.820;6.494;2023-06-10T08:17:34;26.00;51.50
46309;DHT22;32037;50.820;6.494;2023-06-10T08:20:06;26.00;51.50
46309;DHT22;32037;50.820;6.494;2023-06-10T08:22:35;26.00;51.50
46309;DHT22;32037;50.820;6.494;2023-06-10T08:25:04;26.00;51.50
46309;DHT22;32037;50.820;6.494;2023-06-10T08:27:33;26.00;51.60
46309;DHT22;32037;50.820;6.494;2023-06-10T08:30:03;26.00;51.50
46309;DHT22;32037;50.820;6.494;2023-06-10T08:32:31;26.00;51.50
46309;DHT22;32037;50.820;6.494;2023-06-10T08:35:00;26.00;51.60
46309;DHT22;32037;50.820;6.494;2023-06-10T08:37:30;26.00;51.60
46309;DHT22;32037;50.820;6.494;2023-06-10T08:39:58;26.00;51.70
46309;DHT22;32037;50.820;6.494;2023-06-10T08:42:33;26.00;51.70
46309;DHT22;32037;50.820;6.494;2023-06-10T08:45:03;26.00;51.70
46309;DHT22;32037;50.820;6.494;2023-06-10T08:47:35;26.00;51.80
46309;DHT22;32037;50.820;6.494;2023-06-10T08:50:06;25.90;51.70
46309;DHT22;32037;50.820;6.494;2023-06-10T08:52:43;26.00;52.00
46309;DHT22;32037;50.820;6.494;2023-06-10T08:55:15;26.00;52.10
46309;DHT22;32037;50.820;6.494;2023-06-10T08:57:45;26.00;52.00
46309;DHT22;32037;50.820;6.494;2023-06-10T09:00:16;26.00;52.00
46309;DHT22;32037;50.820;6.494;2023-06-10T09:02:44;26.00;52.10
46309;DHT22;32037;50.820;6.494;2023-06-10T09:05:13;26.00;52.10
46309;DHT22;32037;50.820;6.494;2023-06-10T09:07:45;26.00;52.10
46309;DHT22;32037;50.820;6.494;2023-06-10T09:10:14;26.00;52.10
46309;DHT22;32037;50.820;6.494;2023-06-10T09:12:43;26.00;52.10
46309;DHT22;32037;50.820;6.494;2023-06-10T09:15:11;26.00;52.10
46309;DHT22;32037;50.820;6.494;2023-06-10T09:17:41;26.00;52.10
46309;DHT22;32037;50.820;6.494;2023-06-10T09:20:11;26.00;52.20
46309;DHT22;32037;50.820;6.494;2023-06-10T09:22:42;26.00;52.10
46309;DHT22;32037;50.820;6.494;2023-06-10T09:25:12;26.00;52.10
46309;DHT22;32037;50.820;6.494;2023-06-10T09:27:45;26.00;52.10
46309;DHT22;32037;50.820;6.494;2023-06-10T09:30:27;26.00;52.10
46309;DHT22;32037;50.820;6.494;2023-06-10T09:32:57;26.00;52.10
46309;DHT22;32037;50.820;6.494;2023-06-10T09:35:29;26.00;52.10
46309;DHT22;32037;50.820;6.494;2023-06-10T09:38:00;26.00;52.00
46309;DHT22;32037;50.820;6.494;2023-06-10T09:40:29;26.00;52.10
46309;DHT22;32037;50.820;6.494;2023-06-10T09:42:59;26.00;52.10
46309;DHT22;32037;50.820;6.494;2023-06-10T09:45:30;26.00;52.20
46309;DHT22;32037;50.820;6.494;2023-06-10T09:48:00;26.00;52.10
46309;DHT22;32037;50.820;6.494;2023-06-10T09:50:33;26.00;52.20
46309;DHT22;32037;50.820;6.494;2023-06-10T09:53:06;26.00;52.10
46309;DHT22;32037;50.820;6.494;2023-06-10T09:55:37;26.00;52.50
46309;DHT22;32037;50.820;6.494;2023-06-10T09:58:06;26.20;48.70
46309;DHT22;32037;50.820;6.494;2023-06-10T10:00:36;26.40;44.80
46309;DHT22;32037;50.820;6.494;2023-06-10T10:03:04;26.60;45.20
46309;DHT22;32037;50.820;6.494;2023-06-10T10:05:34;26.80;44.70
46309;DHT22;32037;50.820;6.494;2023-06-10T10:08:04;26.60;45.60
46309;DHT22;32037;50.820;6.494;2023-06-10T10:10:33;26.40;46.00
46309;DHT22;32037;50.820;6.494;2023-06-10T10:13:01;26.40;46.80
46309;DHT22;32037;50.820;6.494;2023-06-10T10:15:32;26.30;47.00
46309;DHT22;32037;50.820;6.494;2023-06-10T10:18:07;26.20;47.50
46309;DHT22;32037;50.820;6.494;2023-06-10T10:20:41;26.20;48.10
46309;DHT22;32037;50.820;6.494;2023-06-10T10:23:18;26.10;48.50
46309;DHT22;32037;50.820;6.494;2023-06-10T10:25:52;26.10;48.70
46309;DHT22;32037;50.820;6.494;2023-06-10T10:28:24;26.10;48.90
46309;DHT22;32037;50.820;6.494;2023-06-10T10:31:00;26.10;49.10
46309;DHT22;32037;50.820;6.494;2023-06-10T10:33:39;26.10;49.40
46309;DHT22;32037;50.820;6.494;2023-06-10T10:36:08;26.10;49.40
46309;DHT22;32037;50.820;6.494;2023-06-10T10:38:39;26.10;49.60
46309;DHT22;32037;50.820;6.494;2023-06-10T10:41:09;26.10;49.70
46309;DHT22;32037;50.820;6.494;2023-06-10T10:43:37;26.10;49.80
46309;DHT22;32037;50.820;6.494;2023-06-10T10:46:11;26.20;49.70
46309;DHT22;32037;50.820;6.494;2023-06-10T10:48:40;26.20;49.70
46309;DHT22;32037;50.820;6.494;2023-06-10T10:51:10;26.20;49.70
46309;DHT22;32037;50.820;6.494;2023-06-10T10:53:40;26.10;49.90
46309;DHT22;32037;50.820;6.494;2023-06-10T10:56:14;26.10;50.00
46309;DHT22;32037;50.820;6.494;2023-06-10T10:58:42;26.10;50.10
46309;DHT22;32037;50.820;6.494;2023-06-10T11:01:12;26.20;50.10
46309;DHT22;32037;50.820;6.494;2023-06-10T11:03:45;26.20;49.80
46309;DHT22;32037;50.820;6.494;2023-06-10T11:06:16;26.10;49.90
46309;DHT22;32037;50.820;6.494;2023-06-10T11:08:49;26.10;49.80
46309;DHT22;32037;50.820;6.494;2023-06-10T11:11:20;26.10;49.80
46309;DHT22;32037;50.820;6.494;2023-06-10T11:13:59;26.10;49.80
46309;DHT22;32037;50.820;6.494;2023-06-10T11:16:39;26.10;50.00
46309;DHT22;32037;50.820;6.494;2023-06-10T11:19:08;26.10;50.00
46309;DHT22;32037;50.820;6.494;2023-06-10T11:24:30;26.10;50.00
46309;DHT22;32037;50.820;6.494;2023-06-10T11:27:17;26.20;50.20
46309;DHT22;32037;50.820;6.494;2023-06-10T11:29:56;26.20;50.20
46309;DHT22;32037;50.820;6.494;2023-06-10T11:32:29;26.20;50.10
46309;DHT22;32037;50.820;6.494;2023-06-10T11:34:59;26.20;50.20
46309;DHT22;32037;50.820;6.494;2023-06-10T11:37:28;26.20;50.20
46309;DHT22;32037;50.820;6.494;2023-06-10T11:39:59;26.20;50.30
46309;DHT22;32037;50.820;6.494;2023-06-10T11:42:28;26.20;50.30
46309;DHT22;32037;50.820;6.494;2023-06-10T11:44:57;26.20;50.10
46309;DHT22;32037;50.820;6.494;2023-06-10T11:47:28;26.20;49.80
46309;DHT22;32037;50.820;6.494;2023-06-10T11:49:56;26.20;50.00
46309;DHT22;32037;50.820;6.494;2023-06-10T11:52:29;26.20;50.00
46309;DHT22;32037;50.820;6.494;2023-06-10T11:55:01;26.20;49.70
46309;DHT22;32037;50.820;6.494;2023-06-10T11:57:29;26.20;49.90
46309;DHT22;32037;50.820;6.494;2023-06-10T12:00:04;26.20;50.00
46309;DHT22;32037;50.820;6.494;2023-06-10T12:02:37;26.20;50.00
46309;DHT22;32037;50.820;6.494;2023-06-10T12:05:12;26.30;49.90
46309;DHT22;32037;50.820;6.494;2023-06-10T12:07:41;26.30;49.90
46309;DHT22;32037;50.820;6.494;2023-06-10T12:10:12;26.30;49.90
46309;DHT22;32037;50.820;6.494;2023-06-10T12:12:53;26.30;49.80
46309;DHT22;32037;50.820;6.494;2023-06-10T12:15:24;26.30;49.70
46309;DHT22;32037;50.820;6.494;2023-06-10T12:17:54;26.30;49.90
46309;DHT22;32037;50.820;6.494;2023-06-10T12:20:28;26.40;48.30
46309;DHT22;32037;50.820;6.494;2023-06-10T12:22:57;26.40;47.30
46309;DHT22;32037;50.820;6.494;2023-06-10T12:25:28;26.40;47.30
46309;DHT22;32037;50.820;6.494;2023-06-10T12:27:58;26.40;47.50
46309;DHT22;32037;50.820;6.494;2023-06-10T12:30:27;26.40;48.30
46309;DHT22;32037;50.820;6.494;2023-06-10T12:32:56;26.40;48.40
46309;DHT22;32037;50.820;6.494;2023-06-10T12:35:26;26.40;48.40
46309;DHT22;32037;50.820;6.494;2023-06-10T12:37:56;26.40;48.60
46309;DHT22;32037;50.820;6.494;2023-06-10T12:40:29;26.40;48.80
46309;DHT22;32037;50.820;6.494;2023-06-10T12:42:59;26.40;49.00
46309;DHT22;32037;50.820;6.494;2023-06-10T12:45:28;26.40;49.00
46309;DHT22;32037;50.820;6.494;2023-06-10T12:48:08;26.50;50.80
46309;DHT22;32037;50.820;6.494;2023-06-10T12:50:38;26.50;49.60
46309;DHT22;32037;50.820;6.494;2023-06-10T12:53:08;26.50;49.10
46309;DHT22;32037;50.820;6.494;2023-06-10T12:55:38;26.50;48.90
46309;DHT22;32037;50.820;6.494;2023-06-10T12:58:06;26.50;48.90
46309;DHT22;32037;50.820;6.494;2023-06-10T13:00:35;26.50;48.90
46309;DHT22;32037;50.820;6.494;2023-06-10T13:03:04;26.50;48.90
46309;DHT22;32037;50.820;6.494;2023-06-10T13:05:35;26.50;49.10
46309;DHT22;32037;50.820;6.494;2023-06-10T13:08:05;26.50;49.10
46309;DHT22;32037;50.820;6.494;2023-06-10T13:10:34;26.50;48.80
46309;DHT22;32037;50.820;6.494;2023-06-10T13:13:04;26.50;48.90
46309;DHT22;32037;50.820;6.494;2023-06-10T13:15:34;26.50;48.80
46309;DHT22;32037;50.820;6.494;2023-06-10T13:18:09;26.50;48.90
46309;DHT22;32037;50.820;6.494;2023-06-10T13:20:38;26.40;48.70
46309;DHT22;32037;50.820;6.494;2023-06-10T13:23:06;26.50;48.90
46309;DHT22;32037;50.820;6.494;2023-06-10T13:25:35;26.50;48.70
46309;DHT22;32037;50.820;6.494;2023-06-10T13:28:05;26.50;48.80
46309;DHT22;32037;50.820;6.494;2023-06-10T13:30:34;26.50;48.60
46309;DHT22;32037;50.820;6.494;2023-06-10T13:33:02;26.70;42.00
46309;DHT22;32037;50.820;6.494;2023-06-10T13:35:31;26.70;42.10
46309;DHT22;32037;50.820;6.494;2023-06-10T13:38:00;26.70;43.30
46309;DHT22;32037;50.820;6.494;2023-06-10T13:40:28;26.60;43.70
46309;DHT22;32037;50.820;6.494;2023-06-10T13:42:57;26.60;44.10
46309;DHT22;32037;50.820;6.494;2023-06-10T13:45:27;26.60;44.50
46309;DHT22;32037;50.820;6.494;2023-06-10T13:47:56;26.60;44.80
46309;DHT22;32037;50.820;6.494;2023-06-10T13:50:26;26.60;45.10
46309;DHT22;32037;50.820;6.494;2023-06-10T13:52:54;26.60;45.50
46309;DHT22;32037;50.820;6.494;2023-06-10T13:55:23;26.60;46.70
46309;DHT22;32037;50.820;6.494;2023-06-10T13:57:51;26.60;47.00
46309;DHT22;32037;50.820;6.494;2023-06-10T14:00:20;26.60;47.50
46309;DHT22;32037;50.820;6.494;2023-06-10T14:02:50;26.60;46.70
46309;DHT22;32037;50.820;6.494;2023-06-10T14:05:18;26.60;46.60
46309;DHT22;32037;50.820;6.494;2023-06-10T14:07:47;26.70;47.10
46309;DHT22;32037;50.820;6.494;2023-06-10T14:10:15;26.70;47.20
46309;DHT22;32037;50.820;6.494;2023-06-10T14:12:44;26.60;47.40
46309;DHT22;32037;50.820;6.494;2023-06-10T14:15:12;26.70;47.60
46309;DHT22;32037;50.820;6.494;2023-06-10T14:17:41;26.70;47.80
46309;DHT22;32037;50.820;6.494;2023-06-10T14:20:12;26.70;47.60
46309;DHT22;32037;50.820;6.494;2023-06-10T14:22:41;26.70;47.50
46309;DHT22;32037;50.820;6.494;2023-06-10T14:25:09;26.70;47.60
46309;DHT22;32037;50.820;6.494;2023-06-10T14:27:38;26.70;47.60
46309;DHT22;32037;50.820;6.494;2023-06-10T14:30:07;26.70;47.20
46309;DHT22;32037;50.820;6.494;2023-06-10T14:32:37;26.70;47.50
46309;DHT22;32037;50.820;6.494;2023-06-10T14:35:06;26.70;47.50
46309;DHT22;32037;50.820;6.494;2023-06-10T14:37:36;26.80;47.80
46309;DHT22;32037;50.820;6.494;2023-06-10T14:40:06;26.80;47.80
46309;DHT22;32037;50.820;6.494;2023-06-10T14:42:34;26.80;47.70
46309;DHT22;32037;50.820;6.494;2023-06-10T14:45:04;26.80;47.50
46309;DHT22;32037;50.820;6.494;2023-06-10T14:47:33;26.80;47.50
46309;DHT22;32037;50.820;6.494;2023-06-10T14:50:02;26.80;47.20
46309;DHT22;32037;50.820;6.494;2023-06-10T14:52:30;26.80;47.20
46309;DHT22;32037;50.820;6.494;2023-06-10T14:55:00;26.80;46.90
46309;DHT22;32037;50.820;6.494;2023-06-10T14:57:29;26.80;47.00
46309;DHT22;32037;50.820;6.494;2023-06-10T15:00:01;26.80;46.90
46309;DHT22;32037;50.820;6.494;2023-06-10T15:02:29;26.80;47.00
46309;DHT22;32037;50.820;6.494;2023-06-10T15:04:58;26.80;47.20
46309;DHT22;32037;50.820;6.494;2023-06-10T15:07:26;26.90;47.60
46309;DHT22;32037;50.820;6.494;2023-06-10T15:09:54;26.90;47.70
46309;DHT22;32037;50.820;6.494;2023-06-10T15:12:24;26.90;47.60
46309;DHT22;32037;50.820;6.494;2023-06-10T15:14:55;26.90;47.50
46309;DHT22;32037;50.820;6.494;2023-06-10T15:17:23;26.90;47.60
46309;DHT22;32037;50.820;6.494;2023-06-10T15:19:52;26.90;47.50
46309;DHT22;32037;50.820;6.494;2023-06-10T15:22:20;26.90;47.20
46309;DHT22;32037;50.820;6.494;2023-06-10T15:24:48;26.90;47.70
46309;DHT22;32037;50.820;6.494;2023-06-10T15:27:17;26.90;48.10
46309;DHT22;32037;50.820;6.494;2023-06-10T15:29:47;26.90;47.50
46309;DHT22;32037;50.820;6.494;2023-06-10T15:32:15;26.90;47.10
46309;DHT22;32037;50.820;6.494;2023-06-10T15:34:45;26.90;47.60
46309;DHT22;32037;50.820;6.494;2023-06-10T15:37:14;27.00;47.70
46309;DHT22;32037;50.820;6.494;2023-06-10T15:39:43;27.00;47.50
46309;DHT22;32037;50.820;6.494;2023-06-10T15:42:14;27.00;47.50
46309;DHT22;32037;50.820;6.494;2023-06-10T15:44:43;27.00;47.90
46309;DHT22;32037;50.820;6.494;2023-06-10T15:47:13;27.00;47.70
46309;DHT22;32037;50.820;6.494;2023-06-10T15:49:41;27.00;49.50
46309;DHT22;32037;50.820;6.494;2023-06-10T15:52:10;27.10;48.30